Time;durP1;ratioP1;P1;durP2;ratioP2;P2;SDS_P1;SDS_P2;PMS_P1;PMS_P2;Temp;Humidity;BMP_temperature;BMP_pressure;BME280_temperature;BME280_humidity;BME280_pressure;Samples;Min_cycle;Max_cycle;Signal;HPM_P1;HPM_P2
2024/03/08 00:01:16;;;;;;;0.80;0.80;;;0.90;99.90;;;;;;5082999;28;20529;-78
2024/03/08 00:03:42;;;;;;;0.60;0.60;;;0.80;99.90;;;;;;5088000;27;20464;-81
2024/03/08 00:06:08;;;;;;;1.15;1.15;;;0.80;99.90;;;;;;5103098;27;20050;-80
2024/03/08 00:08:34;;;;;;;0.88;0.88;;;0.80;99.90;;;;;;5102307;27;20052;-81
2024/03/08 00:11:00;;;;;;;0.65;0.65;;;0.80;99.90;;;;;;5105791;27;20054;-83
2024/03/08 00:13:25;;;;;;;0.80;0.80;;;0.90;99.90;;;;;;5099281;27;20035;-80
2024/03/08 00:15:51;;;;;;;0.80;0.80;;;0.90;99.90;;;;;;5068158;28;20036;-82
2024/03/08 00:18:17;;;;;;;0.70;0.70;;;0.90;99.90;;;;;;5100303;27;20032;-80
2024/03/08 00:20:44;;;;;;;0.70;0.70;;;0.80;99.90;;;;;;5086614;27;20053;-80
2024/03/08 00:23:10;;;;;;;1.00;1.00;;;0.80;99.90;;;;;;5095898;28;20055;-80
2024/03/08 00:25:36;;;;;;;;;;;0.80;99.90;;;;;;5106482;27;20040;-81
2024/03/08 00:28:04;;;;;;;0.80;0.80;;;0.80;99.90;;;;;;5104925;27;20011;-79
2024/03/08 00:30:31;;;;;;;0.80;0.80;;;0.80;99.90;;;;;;5108572;27;20062;-81
2024/03/08 00:32:57;;;;;;;0.70;0.70;;;0.80;99.90;;;;;;5100972;28;20401;-79
2024/03/08 00:35:22;;;;;;;;;;;0.70;99.90;;;;;;5100170;28;20044;-79
2024/03/08 00:37:48;;;;;;;0.80;0.80;;;0.70;99.90;;;;;;5099992;27;19973;-80
2024/03/08 00:40:14;;;;;;;0.70;0.70;;;0.70;99.90;;;;;;5082329;28;20392;-81
2024/03/08 00:42:41;;;;;;;1.35;1.35;;;0.70;99.90;;;;;;5099069;28;20043;-79
2024/03/08 00:45:09;;;;;;;1.60;1.42;;;0.60;99.90;;;;;;5106528;28;20094;-79
2024/03/08 00:47:35;;;;;;;1.30;1.20;;;0.60;99.90;;;;;;5103684;28;20058;-80
2024/03/08 00:50:03;;;;;;;0.70;0.70;;;0.60;99.90;;;;;;5102568;28;20494;-79
2024/03/08 00:52:29;;;;;;;0.90;0.90;;;0.60;99.90;;;;;;5101071;28;20136;-79
2024/03/08 00:54:56;;;;;;;1.55;1.45;;;0.50;99.90;;;;;;5107055;28;20118;-79
2024/03/08 00:57:21;;;;;;;0.90;0.90;;;0.50;99.90;;;;;;5107447;28;20538;-82
2024/03/08 00:59:48;;;;;;;0.80;0.80;;;0.50;99.90;;;;;;5097608;28;20136;-81
2024/03/08 01:02:14;;;;;;;0.63;0.63;;;0.40;99.90;;;;;;5112481;28;20118;-79
2024/03/08 01:04:39;;;;;;;0.80;0.80;;;0.40;99.90;;;;;;5085533;28;20122;-81
2024/03/08 01:07:05;;;;;;;1.00;1.00;;;0.40;99.90;;;;;;5094337;28;20100;-81
2024/03/08 01:09:31;;;;;;;0.70;0.70;;;0.50;99.90;;;;;;5085670;28;20058;-79
2024/03/08 01:11:57;;;;;;;1.00;1.00;;;0.40;99.90;;;;;;5101713;28;20036;-79
2024/03/08 01:14:25;;;;;;;0.75;0.75;;;0.40;99.90;;;;;;5099075;28;20417;-80
2024/03/08 01:16:51;;;;;;;1.10;1.10;;;0.40;99.90;;;;;;5105582;28;20043;-79
2024/03/08 01:19:17;;;;;;;0.70;0.70;;;0.40;99.90;;;;;;5083215;28;20062;-79
2024/03/08 01:21:43;;;;;;;0.70;0.70;;;0.30;99.90;;;;;;5112056;28;20062;-78
2024/03/08 01:24:09;;;;;;;1.10;1.02;;;0.30;99.90;;;;;;5099431;28;20040;-79
2024/03/08 01:26:34;;;;;;;0.65;0.65;;;0.30;99.90;;;;;;5105223;28;20035;-79
2024/03/08 01:29:04;;;;;;;;;;;0.30;99.90;;;;;;5125797;27;20112;-81
2024/03/08 01:31:31;;;;;;;0.80;0.80;;;0.30;99.90;;;;;;5115852;28;19958;-83
2024/03/08 01:34:00;;;;;;;9.63;2.28;;;0.30;99.90;;;;;;5103923;27;20040;-79
2024/03/08 01:36:25;;;;;;;1.27;1.25;;;0.30;99.90;;;;;;5068134;27;20047;-80
2024/03/08 01:38:52;;;;;;;0.82;0.82;;;0.30;99.90;;;;;;5103559;27;20044;-78
2024/03/08 01:41:19;;;;;;;0.70;0.70;;;0.40;99.90;;;;;;5100272;27;20490;-79
2024/03/08 01:43:45;;;;;;;1.25;1.10;;;0.30;99.90;;;;;;5106537;27;20043;-81
2024/03/08 01:46:15;;;;;;;;;;;0.30;99.90;;;;;;5108550;27;20027;-79
2024/03/08 01:48:41;;;;;;;0.93;0.93;;;0.30;99.90;;;;;;5111685;27;19920;-80
2024/03/08 01:51:07;;;;;;;0.60;0.60;;;0.30;99.90;;;;;;5119587;27;20069;-78
2024/03/08 01:53:34;;;;;;;;;;;0.30;99.90;;;;;;5117306;27;20025;-79
2024/03/08 01:56:00;;;;;;;1.25;1.17;;;0.30;99.90;;;;;;5103406;27;20014;-79
2024/03/08 01:58:29;;;;;;;1.35;1.33;;;0.30;99.90;;;;;;5087657;28;20085;-80
2024/03/08 02:00:57;;;;;;;1.27;1.27;;;0.20;99.90;;;;;;5105852;27;20044;-81
2024/03/08 02:03:22;;;;;;;0.70;0.70;;;0.20;99.90;;;;;;5090372;27;20122;-79
2024/03/08 02:05:49;;;;;;;0.85;0.85;;;0.10;99.90;;;;;;5109772;27;20138;-79
2024/03/08 02:08:16;;;;;;;0.90;0.90;;;0.10;99.90;;;;;;5117357;27;20059;-79
2024/03/08 02:10:43;;;;;;;0.90;0.90;;;0.10;99.90;;;;;;5106824;27;20124;-82
2024/03/08 02:13:09;;;;;;;0.80;0.80;;;0.10;99.90;;;;;;5114373;27;20039;-80
2024/03/08 02:15:53;;;;;;;;;;;0.10;99.90;;;;;;5120044;27;20077;-78
2024/03/08 02:18:20;;;;;;;0.73;0.73;;;0.10;99.90;;;;;;5124795;27;19916;-80
2024/03/08 02:20:56;;;;;;;0.70;0.70;;;0.00;99.90;;;;;;5086150;27;20058;-79
2024/03/08 02:23:24;;;;;;;1.95;1.42;;;0.00;99.90;;;;;;5069435;27;20050;-80
2024/03/08 02:25:50;;;;;;;0.82;0.82;;;0.00;99.90;;;;;;5107425;27;20367;-80
2024/03/08 02:28:18;;;;;;;10.63;1.60;;;-0.10;99.90;;;;;;5072319;27;20040;-80
2024/03/08 02:30:46;;;;;;;0.80;0.80;;;-0.10;99.90;;;;;;5126092;27;20061;-77
2024/03/08 02:33:17;;;;;;;0.70;0.70;;;-0.10;99.90;;;;;;5110930;27;20035;-78
2024/03/08 02:35:46;;;;;;;2.00;1.80;;;0.00;99.90;;;;;;5090990;27;20402;-80
2024/03/08 02:38:18;;;;;;;1.08;1.08;;;-0.20;99.90;;;;;;5104039;27;20491;-80
2024/03/08 02:40:45;;;;;;;0.70;0.70;;;-0.20;99.90;;;;;;5124878;27;20036;-79
2024/03/08 02:43:12;;;;;;;0.70;0.70;;;-0.10;99.90;;;;;;5105483;27;20479;-82
2024/03/08 02:45:38;;;;;;;0.70;0.70;;;-0.20;99.90;;;;;;5119784;27;20035;-79
2024/03/08 02:48:06;;;;;;;1.42;1.38;;;-0.20;99.90;;;;;;5113138;27;20037;-78
2024/03/08 02:50:34;;;;;;;1.25;1.15;;;-0.20;99.90;;;;;;5107560;27;20083;-78
2024/03/08 02:53:00;;;;;;;0.70;0.70;;;-0.20;99.90;;;;;;5097023;27;20049;-80
2024/03/08 02:55:26;;;;;;;1.02;1.02;;;-0.20;99.90;;;;;;5092100;27;20035;-79
2024/03/08 02:57:57;;;;;;;1.10;1.10;;;-0.20;99.90;;;;;;5111342;27;20027;-78
2024/03/08 03:00:24;;;;;;;0.90;0.90;;;-0.20;99.90;;;;;;5117083;27;20053;-79
2024/03/08 03:02:53;;;;;;;0.70;0.70;;;-0.10;99.90;;;;;;5102103;27;20090;-81
2024/03/08 03:05:23;;;;;;;5.35;5.00;;;-0.30;99.90;;;;;;5090063;27;20047;-81
2024/03/08 03:07:50;;;;;;;0.70;0.70;;;-0.30;99.90;;;;;;5107538;27;20573;-79
2024/03/08 03:10:19;;;;;;;0.80;0.80;;;-0.30;99.90;;;;;;5091438;27;20154;-78
2024/03/08 03:12:48;;;;;;;2.60;1.95;;;-0.30;99.90;;;;;;5108166;27;20080;-79
2024/03/08 03:15:14;;;;;;;0.80;0.80;;;-0.30;99.90;;;;;;5115491;27;20071;-79
2024/03/08 03:17:41;;;;;;;1.23;1.20;;;-0.30;99.90;;;;;;5104132;27;20047;-79
2024/03/08 03:20:13;;;;;;;0.70;0.70;;;-0.30;99.90;;;;;;5102451;27;20039;-78
2024/03/08 03:22:40;;;;;;;0.75;0.75;;;-0.30;99.90;;;;;;5109487;27;20047;-79
2024/03/08 03:25:07;;;;;;;0.90;0.90;;;-0.40;99.90;;;;;;5102001;27;20028;-78
2024/03/08 03:27:33;;;;;;;0.88;0.88;;;-0.40;99.90;;;;;;5106289;27;20038;-78
2024/03/08 03:30:19;;;;;;;0.80;0.80;;;-0.30;99.90;;;;;;5084145;28;20112;-80
2024/03/08 03:32:46;;;;;;;0.80;0.80;;;-0.40;99.90;;;;;;5109702;27;20047;-80
2024/03/08 03:35:14;;;;;;;0.80;0.80;;;-0.50;99.90;;;;;;5110294;27;20040;-80
2024/03/08 03:37:42;;;;;;;0.70;0.70;;;-0.50;99.90;;;;;;5107377;27;20039;-78
2024/03/08 03:40:09;;;;;;;1.55;1.45;;;-0.50;99.90;;;;;;5107447;27;20047;-79
2024/03/08 03:42:35;;;;;;;0.73;0.73;;;-0.50;99.90;;;;;;5110743;27;20515;-79
2024/03/08 03:45:02;;;;;;;0.70;0.70;;;-0.50;99.90;;;;;;5087227;27;20088;-81
2024/03/08 03:47:28;;;;;;;0.80;0.80;;;-0.40;99.90;;;;;;5104315;27;20078;-79
2024/03/08 03:49:54;;;;;;;0.70;0.70;;;-0.40;99.90;;;;;;5093987;27;20506;-79
2024/03/08 03:52:19;;;;;;;0.60;0.60;;;-0.50;99.90;;;;;;5090643;27;20081;-81
2024/03/08 03:54:45;;;;;;;1.10;1.10;;;-0.50;99.90;;;;;;5084546;27;20055;-78
2024/03/08 03:57:12;;;;;;;;;;;0.90;99.90;;;;;;5100728;27;20572;-79
2024/03/08 03:59:38;;;;;;;0.80;0.80;;;-0.50;99.90;;;;;;5089102;27;19919;-79
2024/03/08 04:02:03;;;;;;;0.70;0.70;;;-0.50;99.90;;;;;;5097884;27;20043;-79
2024/03/08 04:04:29;;;;;;;;;;;-0.50;99.90;;;;;;5097840;27;20454;-80
2024/03/08 04:06:55;;;;;;;0.70;0.70;;;-0.50;99.90;;;;;;5098030;27;19915;-80
2024/03/08 04:09:22;;;;;;;;;;;-0.50;99.90;;;;;;5101782;27;20055;-79
2024/03/08 04:11:49;;;;;;;1.25;1.25;;;-0.50;99.90;;;;;;5126174;27;19962;-80
2024/03/08 04:14:14;;;;;;;0.75;0.75;;;-0.50;99.90;;;;;;5098991;27;20482;-77
2024/03/08 04:16:40;;;;;;;1.38;1.38;;;-0.50;99.90;;;;;;5100549;28;20039;-81
2024/03/08 04:19:06;;;;;;;;;;;-0.50;99.90;;;;;;5087213;27;20058;-81
2024/03/08 04:21:31;;;;;;;1.00;1.00;;;-0.50;99.90;;;;;;5128072;27;19933;-81
2024/03/08 04:23:57;;;;;;;0.85;0.85;;;-0.50;99.90;;;;;;5086926;27;20034;-82
2024/03/08 04:26:23;;;;;;;0.80;0.80;;;-0.50;99.90;;;;;;5123364;27;20042;-79
2024/03/08 04:28:48;;;;;;;1.75;1.27;;;-0.50;99.90;;;;;;5091064;27;20423;-78
2024/03/08 04:31:15;;;;;;;;;;;-0.50;99.90;;;;;;5111216;27;20035;-78
2024/03/08 04:33:41;;;;;;;0.93;0.93;;;-0.50;99.90;;;;;;5137354;27;20373;-78
2024/03/08 04:36:07;;;;;;;0.90;0.90;;;-0.60;99.90;;;;;;5121706;27;20145;-78
2024/03/08 04:38:34;;;;;;;0.70;0.70;;;-0.60;99.90;;;;;;5104450;27;20050;-77
2024/03/08 04:41:01;;;;;;;1.27;1.10;;;-0.60;99.90;;;;;;5086275;28;20607;-79
2024/03/08 04:43:30;;;;;;;0.80;0.80;;;-0.70;99.90;;;;;;5084208;28;20043;-79
2024/03/08 04:45:56;;;;;;;0.90;0.90;;;-0.70;99.90;;;;;;5073180;27;20038;-78
2024/03/08 04:48:21;;;;;;;0.85;0.85;;;-0.70;99.90;;;;;;5102749;28;20042;-78
2024/03/08 04:50:47;;;;;;;;;;;-0.70;99.90;;;;;;5124941;27;20035;-78
2024/03/08 04:53:13;;;;;;;0.70;0.70;;;-0.80;99.90;;;;;;5091063;28;19915;-80
2024/03/08 04:55:39;;;;;;;0.90;0.90;;;-0.80;99.90;;;;;;5088435;28;20039;-80
2024/03/08 04:58:08;;;;;;;0.85;0.85;;;-0.80;99.90;;;;;;5109004;27;20111;-79
2024/03/08 05:00:33;;;;;;;0.80;0.80;;;-0.80;99.90;;;;;;5115112;28;20039;-78
2024/03/08 05:02:59;;;;;;;0.70;0.70;;;-0.80;99.90;;;;;;5092017;28;20042;-77
2024/03/08 05:05:26;;;;;;;1.52;1.42;;;-0.80;99.90;;;;;;5084803;28;20297;-80
2024/03/08 05:07:51;;;;;;;0.85;0.85;;;-0.80;99.90;;;;;;5139687;27;20533;-79
2024/03/08 05:10:18;;;;;;;0.88;0.88;;;-0.80;99.90;;;;;;5105052;27;20097;-80
2024/03/08 05:12:44;;;;;;;0.90;0.90;;;-0.80;99.90;;;;;;5111255;27;20043;-81
2024/03/08 05:15:10;;;;;;;0.70;0.70;;;-0.80;99.90;;;;;;5087834;27;20047;-80
2024/03/08 05:17:36;;;;;;;0.82;0.82;;;-0.80;99.90;;;;;;5124542;27;20066;-79
2024/03/08 05:20:02;;;;;;;0.88;0.88;;;-0.80;99.90;;;;;;5110589;27;20134;-77
2024/03/08 05:22:28;;;;;;;2.72;2.38;;;-0.80;99.90;;;;;;5112253;27;20043;-80
2024/03/08 05:24:53;;;;;;;0.77;0.77;;;-0.90;99.90;;;;;;5133143;27;20516;-79
2024/03/08 05:27:19;;;;;;;;;;;-0.90;99.90;;;;;;5105189;27;20578;-79
2024/03/08 05:29:46;;;;;;;0.70;0.70;;;-0.60;99.90;;;;;;5104500;27;19927;-79
2024/03/08 05:32:12;;;;;;;0.80;0.80;;;-0.90;99.90;;;;;;5107636;27;20046;-81
2024/03/08 05:34:38;;;;;;;0.77;0.77;;;-0.90;99.90;;;;;;5109835;27;20047;-81
2024/03/08 05:37:04;;;;;;;0.65;0.65;;;-0.80;99.90;;;;;;5097733;27;20503;-82
2024/03/08 05:39:30;;;;;;;;;;;-0.70;99.90;;;;;;5111405;27;20047;-81
2024/03/08 05:41:56;;;;;;;0.75;0.75;;;-1.00;99.90;;;;;;5108215;27;20435;-82
2024/03/08 05:44:22;;;;;;;0.90;0.90;;;-1.00;99.90;;;;;;5108387;27;20039;-81
2024/03/08 05:46:48;;;;;;;0.80;0.80;;;-0.70;99.90;;;;;;5125700;27;20121;-78
2024/03/08 05:49:14;;;;;;;0.95;0.95;;;-1.00;99.90;;;;;;5109849;28;20047;-80
2024/03/08 05:51:41;;;;;;;0.80;0.80;;;-1.00;99.90;;;;;;5119874;27;20042;-80
2024/03/08 05:54:11;;;;;;;0.80;0.80;;;-1.00;99.90;;;;;;5115702;27;20038;-78
2024/03/08 05:56:38;;;;;;;2.03;1.85;;;-0.60;99.90;;;;;;5125757;27;20031;-79
2024/03/08 05:59:04;;;;;;;0.77;0.77;;;-0.70;99.90;;;;;;5125425;27;20058;-79
2024/03/08 06:01:35;;;;;;;0.82;0.82;;;-0.60;99.90;;;;;;5145026;27;20026;-79
2024/03/08 06:04:02;;;;;;;0.80;0.80;;;-0.90;99.90;;;;;;5141484;27;20062;-80
2024/03/08 06:06:28;;;;;;;4.70;1.67;;;-1.00;99.90;;;;;;5100707;27;20107;-78
2024/03/08 06:08:56;;;;;;;1.40;1.40;;;-0.90;99.90;;;;;;5109269;27;20179;-79
2024/03/08 06:11:22;;;;;;;0.70;0.70;;;-1.10;99.90;;;;;;5105915;27;20031;-78
2024/03/08 06:13:49;;;;;;;0.90;0.90;;;-1.20;99.90;;;;;;5124500;27;20467;-79
2024/03/08 06:16:15;;;;;;;2.00;1.90;;;-0.90;99.90;;;;;;5127691;27;20034;-79
2024/03/08 06:18:41;;;;;;;0.90;0.90;;;0.00;99.90;;;;;;5096263;28;20136;-78
2024/03/08 06:21:16;;;;;;;0.90;0.90;;;-1.20;99.90;;;;;;5133132;27;20039;-80
2024/03/08 06:23:41;;;;;;;0.90;0.90;;;-1.20;99.90;;;;;;5096061;27;20082;-80
2024/03/08 06:26:07;;;;;;;0.85;0.85;;;-1.20;99.90;;;;;;5112771;27;20583;-78
2024/03/08 06:28:34;;;;;;;1.73;1.63;;;-1.20;99.90;;;;;;5107077;27;20046;-80
2024/03/08 06:31:01;;;;;;;5.13;4.78;;;-1.20;99.90;;;;;;5111494;27;20074;-80
2024/03/08 06:33:27;;;;;;;0.82;0.82;;;-0.30;99.90;;;;;;5131058;27;20029;-81
2024/03/08 06:35:57;;;;;;;;;;;-1.10;99.90;;;;;;5104970;28;20073;-80
2024/03/08 06:38:25;;;;;;;1.00;1.00;;;-1.10;99.90;;;;;;5123172;27;19916;-80
2024/03/08 06:40:52;;;;;;;0.80;0.80;;;-1.00;99.90;;;;;;5087685;27;20117;-81
2024/03/08 06:43:18;;;;;;;2.15;1.67;;;-0.80;99.90;;;;;;5089188;27;20087;-80
2024/03/08 06:45:50;;;;;;;0.82;0.82;;;-1.00;99.90;;;;;;5109787;27;20038;-79
2024/03/08 06:48:19;;;;;;;0.70;0.70;;;-1.00;99.90;;;;;;5127241;27;20043;-81
2024/03/08 06:50:46;;;;;;;0.80;0.80;;;-0.90;99.90;;;;;;5126754;27;20035;-82
2024/03/08 06:53:13;;;;;;;0.90;0.90;;;-0.90;99.90;;;;;;5109458;27;20040;-79
2024/03/08 06:55:42;;;;;;;1.85;1.75;;;-0.80;99.90;;;;;;5127958;27;20071;-81
2024/03/08 06:58:08;;;;;;;0.63;0.63;;;-2.40;99.90;;;;;;5129791;27;20031;-84
2024/03/08 07:00:33;;;;;;;0.80;0.80;;;-0.70;99.90;;;;;;5117159;27;20451;-81
2024/03/08 07:03:02;;;;;;;0.73;0.73;;;-0.70;99.90;;;;;;5120557;27;20123;-78
2024/03/08 07:05:32;;;;;;;0.80;0.80;;;-0.60;99.90;;;;;;5111395;27;20047;-80
2024/03/08 07:07:58;;;;;;;0.70;0.70;;;-0.50;99.90;;;;;;5125605;27;20039;-79
2024/03/08 07:10:24;;;;;;;0.80;0.80;;;-0.50;99.90;;;;;;5125998;27;20585;-80
2024/03/08 07:12:50;;;;;;;;;;;-0.40;99.90;;;;;;5122073;27;20048;-78
2024/03/08 07:15:19;;;;;;;1.98;1.77;;;-0.40;99.90;;;;;;5107763;27;20415;-79
2024/03/08 07:17:46;;;;;;;1.60;1.20;;;-0.30;99.90;;;;;;5097300;27;20043;-80
2024/03/08 07:20:15;;;;;;;0.90;0.90;;;-0.30;99.90;;;;;;5141396;27;20062;-78
2024/03/08 07:22:41;;;;;;;0.70;0.70;;;1.80;99.90;;;;;;5113906;27;20389;-80
2024/03/08 07:27:37;;;;;;;0.73;0.73;;;1.40;99.90;;;;;;5144865;27;20042;-81
2024/03/08 07:30:03;;;;;;;0.80;0.80;;;0.10;99.90;;;;;;5138671;27;20040;-81
2024/03/08 07:32:33;;;;;;;0.80;0.80;;;0.20;99.90;;;;;;5136502;27;20032;-82
2024/03/08 07:34:59;;;;;;;0.70;0.70;;;0.20;99.90;;;;;;5141590;27;20047;-83
2024/03/08 07:37:25;;;;;;;1.15;1.15;;;0.30;99.90;;;;;;5126098;27;20042;-81
2024/03/08 07:39:51;;;;;;;0.80;0.80;;;0.40;99.90;;;;;;5115037;27;20043;-79
2024/03/08 07:42:16;;;;;;;0.80;0.80;;;0.40;99.90;;;;;;5139823;27;20039;-78
2024/03/08 07:44:43;;;;;;;0.73;0.73;;;0.50;99.90;;;;;;5115109;27;20122;-79
2024/03/08 07:47:15;;;;;;;1.20;1.20;;;0.50;99.90;;;;;;5129081;27;20046;-81
2024/03/08 07:49:43;;;;;;;0.90;0.90;;;0.60;99.90;;;;;;5127138;27;20411;-81
2024/03/08 07:52:15;;;;;;;0.63;0.63;;;0.70;99.90;;;;;;5131082;27;20039;-80
2024/03/08 07:54:41;;;;;;;0.70;0.70;;;0.80;99.90;;;;;;5119935;27;20068;-78
2024/03/08 07:57:07;;;;;;;;;;;0.80;99.90;;;;;;5123390;27;20032;-77
2024/03/08 07:59:33;;;;;;;2.08;1.15;;;0.90;99.90;;;;;;5123094;27;19923;-76
2024/03/08 08:01:59;;;;;;;2.00;1.90;;;0.90;99.90;;;;;;5130315;27;20131;-77
2024/03/08 08:04:26;;;;;;;0.70;0.70;;;0.90;99.90;;;;;;5125742;27;20130;-76
2024/03/08 08:06:54;;;;;;;0.70;0.70;;;1.00;99.90;;;;;;5109015;27;20639;-77
2024/03/08 08:09:28;;;;;;;1.85;1.52;;;1.10;99.90;;;;;;5114397;27;20062;-77
2024/03/08 08:11:55;;;;;;;1.42;1.35;;;1.20;99.90;;;;;;5120467;27;20047;-77
2024/03/08 08:14:21;;;;;;;1.23;1.20;;;1.20;99.90;;;;;;5087867;27;20043;-77
2024/03/08 08:16:48;;;;;;;0.70;0.70;;;1.30;99.90;;;;;;5115805;27;20122;-79
2024/03/08 08:19:15;;;;;;;0.70;0.70;;;1.40;99.90;;;;;;5104975;27;20039;-77
2024/03/08 08:21:41;;;;;;;1.00;1.00;;;1.50;99.90;;;;;;5106696;27;20104;-77
2024/03/08 08:24:07;;;;;;;0.80;0.80;;;1.50;99.90;;;;;;5120823;27;20035;-80
2024/03/08 08:26:33;;;;;;;0.80;0.80;;;1.60;99.90;;;;;;5085214;28;20122;-80
2024/03/08 08:28:59;;;;;;;;;;;1.70;99.90;;;;;;5107198;27;20126;-78
2024/03/08 08:31:26;;;;;;;1.73;1.63;;;1.70;99.90;;;;;;5137174;27;20006;-78
2024/03/08 08:33:58;;;;;;;0.73;0.73;;;1.80;99.90;;;;;;5108555;27;20134;-79
2024/03/08 08:36:24;;;;;;;0.60;0.60;;;1.90;99.90;;;;;;5082370;27;20447;-78
2024/03/08 08:38:50;;;;;;;0.60;0.60;;;0.20;99.90;;;;;;5064618;27;20043;-79
2024/03/08 08:41:17;;;;;;;0.70;0.70;;;2.00;99.90;;;;;;5093395;27;20080;-78
2024/03/08 08:43:46;;;;;;;0.98;0.98;;;2.10;99.90;;;;;;5081423;28;20039;-79
2024/03/08 08:46:14;;;;;;;0.60;0.60;;;2.20;99.90;;;;;;5059916;27;20058;-79
2024/03/08 08:48:45;;;;;;;0.95;0.80;;;2.30;99.90;;;;;;5097029;27;20047;-80
2024/03/08 08:51:15;;;;;;;0.80;0.80;;;2.40;99.90;;;;;;5093733;28;20066;-79
2024/03/08 08:53:46;;;;;;;0.63;0.63;;;2.40;99.90;;;;;;5080661;27;20069;-79
2024/03/08 08:56:13;;;;;;;0.70;0.70;;;2.50;99.90;;;;;;5079894;28;20050;-82
2024/03/08 08:58:42;;;;;;;0.60;0.60;;;2.50;99.90;;;;;;5119476;27;20050;-78
2024/03/08 09:01:12;;;;;;;0.80;0.80;;;2.60;99.90;;;;;;5081788;28;20046;-81
2024/03/08 09:03:40;;;;;;;1.00;1.00;;;2.70;99.90;;;;;;5090763;27;20073;-78
2024/03/08 09:06:09;;;;;;;0.80;0.80;;;2.70;99.90;;;;;;5075522;28;20036;-80
2024/03/08 09:08:36;;;;;;;0.50;0.50;;;2.70;99.90;;;;;;5115442;28;20071;-78
2024/03/08 09:11:02;;;;;;;0.70;0.70;;;2.80;99.90;;;;;;5076589;27;20046;-78
2024/03/08 09:13:28;;;;;;;3.63;0.70;;;2.90;99.90;;;;;;5085603;28;20043;-81
2024/03/08 09:15:54;;;;;;;1.40;1.38;;;3.00;99.90;;;;;;5063341;28;20466;-78
2024/03/08 09:18:20;;;;;;;;;;;3.00;99.90;;;;;;5131956;27;20039;-78
2024/03/08 09:20:46;;;;;;;0.80;0.80;;;3.00;99.90;;;;;;5096149;28;19969;-81
2024/03/08 09:23:12;;;;;;;0.70;0.70;;;3.00;99.90;;;;;;5096039;27;20126;-80
2024/03/08 09:25:38;;;;;;;1.02;1.02;;;1.60;99.90;;;;;;5084128;27;20077;-78
2024/03/08 09:28:05;;;;;;;1.40;1.30;;;3.10;99.90;;;;;;5095508;28;20042;-79
2024/03/08 09:30:31;;;;;;;4.13;1.65;;;3.20;99.90;;;;;;5061383;28;20120;-80
2024/03/08 09:32:57;;;;;;;1.08;1.05;;;3.20;99.90;;;;;;5078888;28;20040;-80
2024/03/08 09:35:24;;;;;;;0.75;0.75;;;3.20;99.90;;;;;;5062177;27;20035;-80
2024/03/08 09:37:51;;;;;;;1.05;1.05;;;3.20;99.90;;;;;;5087281;28;20031;-78
2024/03/08 09:40:19;;;;;;;1.10;1.10;;;3.40;99.90;;;;;;5096633;27;20042;-78
2024/03/08 09:42:48;;;;;;;0.50;0.50;;;3.40;99.90;;;;;;5112156;28;20076;-83
2024/03/08 09:45:24;;;;;;;0.80;0.80;;;4.40;99.90;;;;;;5120852;27;20058;-75
2024/03/08 09:47:50;;;;;;;0.65;0.65;;;3.60;99.90;;;;;;5107788;28;20058;-77
2024/03/08 09:50:17;;;;;;;0.77;0.77;;;3.70;99.90;;;;;;5125166;27;20091;-80
2024/03/08 09:52:47;;;;;;;0.70;0.70;;;3.70;99.90;;;;;;5129051;27;20046;-84
2024/03/08 09:55:13;;;;;;;0.80;0.80;;;3.70;99.90;;;;;;5115650;27;20063;-84
2024/03/08 09:57:40;;;;;;;0.70;0.70;;;3.80;99.90;;;;;;5108008;27;20085;-75
2024/03/08 10:00:40;;;;;;;1.05;1.02;;;3.80;99.90;;;;;;5125646;27;20039;-77
2024/03/08 10:03:03;;;;;;;1.17;1.17;;;3.80;99.90;;;;;;5117695;27;20410;-78
2024/03/08 10:05:32;;;;;;;1.05;1.00;;;3.90;99.90;;;;;;5095616;27;20047;-76
2024/03/08 10:07:58;;;;;;;1.88;1.77;;;4.00;99.90;;;;;;5110355;27;20034;-76
2024/03/08 10:10:24;;;;;;;1.10;1.10;;;4.00;99.90;;;;;;5102987;27;20491;-77
2024/03/08 10:12:51;;;;;;;1.05;1.05;;;4.10;99.90;;;;;;5110472;27;20035;-77
2024/03/08 10:15:17;;;;;;;1.33;1.33;;;4.10;99.90;;;;;;5106647;27;20043;-79
2024/03/08 10:17:43;;;;;;;0.85;0.85;;;4.20;99.90;;;;;;5106304;27;20036;-77
2024/03/08 10:20:19;;;;;;;0.60;0.60;;;4.30;99.90;;;;;;5104164;27;20036;-76
2024/03/08 10:22:45;;;;;;;0.70;0.70;;;4.30;99.90;;;;;;5104219;27;20071;-77
2024/03/08 10:25:12;;;;;;;0.70;0.70;;;4.40;99.90;;;;;;5107760;27;20053;-79
2024/03/08 10:27:41;;;;;;;1.02;1.02;;;4.50;99.90;;;;;;5122554;27;20095;-77
2024/03/08 10:30:12;;;;;;;1.60;1.10;;;4.50;99.90;;;;;;5104916;27;20588;-78
2024/03/08 10:32:41;;;;;;;0.73;0.73;;;4.60;99.90;;;;;;5109898;27;20036;-76
2024/03/08 10:35:12;;;;;;;1.08;1.08;;;4.60;99.90;;;;;;5089630;27;20503;-78
2024/03/08 10:37:45;;;;;;;0.65;0.65;;;4.70;99.90;;;;;;5106816;27;20050;-76
2024/03/08 10:40:19;;;;;;;0.63;0.63;;;4.80;99.90;;;;;;5106420;27;20036;-77
2024/03/08 10:42:55;;;;;;;0.90;0.90;;;4.90;99.90;;;;;;5106713;27;20410;-78
2024/03/08 10:45:38;;;;;;;0.60;0.60;;;4.90;99.90;;;;;;5106941;27;20048;-77
2024/03/08 10:48:24;;;;;;;0.75;0.75;;;4.90;99.90;;;;;;5111595;27;20081;-77
2024/03/08 10:50:52;;;;;;;0.70;0.70;;;5.00;99.90;;;;;;5094933;27;20055;-77
2024/03/08 10:53:21;;;;;;;0.60;0.60;;;5.10;99.90;;;;;;5099357;27;20200;-78
2024/03/08 10:55:47;;;;;;;1.13;0.85;;;5.10;99.90;;;;;;5102990;27;20051;-78
2024/03/08 10:58:13;;;;;;;0.60;0.60;;;5.20;99.90;;;;;;5097411;27;20051;-79
2024/03/08 11:00:39;;;;;;;2.03;1.92;;;5.30;99.90;;;;;;5104714;27;20044;-78
2024/03/08 11:03:07;;;;;;;2.00;1.10;;;5.40;99.90;;;;;;5092522;28;20088;-78
2024/03/08 11:05:40;;;;;;;0.93;0.93;;;5.50;99.90;;;;;;5105999;27;20034;-77
2024/03/08 11:08:13;;;;;;;2.80;2.70;;;5.50;99.90;;;;;;5107154;27;20031;-78
2024/03/08 11:10:55;;;;;;;0.75;0.75;;;5.60;99.90;;;;;;5123904;27;20056;-77
2024/03/08 11:13:41;;;;;;;0.70;0.70;;;5.70;99.90;;;;;;5128081;27;20424;-76
2024/03/08 11:16:10;;;;;;;1.30;1.30;;;5.80;99.90;;;;;;5121625;27;20038;-78
2024/03/08 11:18:37;;;;;;;1.65;1.55;;;5.90;99.90;;;;;;5106474;27;20043;-76
2024/03/08 11:21:12;;;;;;;0.82;0.82;;;6.00;99.90;;;;;;5103592;27;20414;-76
2024/03/08 11:23:39;;;;;;;0.60;0.60;;;6.10;99.90;;;;;;5126790;27;20039;-78
2024/03/08 11:26:23;;;;;;;11.73;1.17;;;6.10;99.90;;;;;;5131788;27;20071;-76
2024/03/08 11:28:53;;;;;;;0.60;0.60;;;6.20;99.90;;;;;;5102190;27;20518;-79
2024/03/08 11:31:22;;;;;;;1.27;1.17;;;6.30;99.90;;;;;;5110692;27;20042;-77
2024/03/08 11:33:49;;;;;;;1.00;1.00;;;6.40;99.90;;;;;;5109604;27;20039;-80
2024/03/08 11:36:24;;;;;;;0.80;0.80;;;6.40;99.90;;;;;;5099782;27;20031;-81
2024/03/08 11:38:52;;;;;;;2.97;2.65;;;6.50;99.90;;;;;;5129005;27;20058;-80
2024/03/08 11:41:22;;;;;;;0.93;0.93;;;6.50;99.90;;;;;;5129542;27;20068;-80
2024/03/08 11:43:50;;;;;;;1.65;1.02;;;6.60;99.90;;;;;;5111092;27;20051;-80
2024/03/08 11:46:17;;;;;;;1.45;1.25;;;6.70;99.90;;;;;;5111444;27;20079;-80
2024/03/08 11:48:44;;;;;;;0.60;0.60;;;6.80;99.90;;;;;;5141421;27;20100;-79
2024/03/08 11:51:15;;;;;;;1.17;1.15;;;6.90;99.90;;;;;;5134970;27;20482;-82
2024/03/08 11:53:41;;;;;;;1.42;1.33;;;6.90;99.90;;;;;;5080264;27;20035;-80
2024/03/08 11:56:09;;;;;;;0.73;0.73;;;7.00;99.90;;;;;;5098882;27;20035;-82
2024/03/08 11:58:36;;;;;;;1.92;1.83;;;7.10;99.90;;;;;;5134172;27;20038;-80
2024/03/08 12:01:07;;;;;;;0.63;0.63;;;7.10;99.90;;;;;;5107962;27;20039;-79
2024/03/08 12:03:33;;;;;;;2.15;1.10;;;7.20;99.90;;;;;;5108907;27;20066;-80
2024/03/08 12:06:03;;;;;;;1.42;1.10;;;7.30;99.90;;;;;;5115107;27;20075;-81
2024/03/08 12:08:32;;;;;;;0.50;0.50;;;7.30;99.90;;;;;;5131848;27;20402;-79
2024/03/08 12:11:01;;;;;;;2.03;1.88;;;7.40;99.90;;;;;;5114607;27;20059;-81
2024/03/08 12:13:31;;;;;;;1.77;1.67;;;7.30;99.90;;;;;;5129748;27;20375;-79
2024/03/08 12:16:04;;;;;;;3.25;2.53;;;7.40;99.90;;;;;;5123929;27;20040;-77
2024/03/08 12:18:34;;;;;;;0.40;0.40;;;7.50;99.90;;;;;;5107146;27;20068;-81
2024/03/08 12:21:10;;;;;;;1.80;1.23;;;7.50;99.90;;;;;;5134933;27;20050;-80
2024/03/08 12:23:38;;;;;;;1.60;1.50;;;7.60;99.90;;;;;;5115223;27;20949;-79
2024/03/08 12:26:18;;;;;;;5.00;0.73;;;7.70;99.90;;;;;;5112564;27;20035;-80
2024/03/08 12:28:45;;;;;;;1.05;0.93;;;7.80;99.90;;;;;;5109720;28;20051;-77
2024/03/08 12:31:21;;;;;;;0.57;0.57;;;7.90;99.90;;;;;;5125282;27;20036;-81
2024/03/08 12:33:51;;;;;;;0.80;0.80;;;8.00;99.90;;;;;;5114518;27;20088;-80
2024/03/08 12:36:19;;;;;;;1.30;1.25;;;8.00;99.90;;;;;;5104504;27;20219;-84
2024/03/08 12:38:49;;;;;;;1.35;1.00;;;8.10;99.90;;;;;;5097977;27;20068;-78
2024/03/08 12:41:17;;;;;;;1.67;1.58;;;8.10;99.90;;;;;;5083116;27;20125;-80
2024/03/08 12:43:48;;;;;;;1.17;1.15;;;8.20;99.90;;;;;;5083065;27;20039;-80
2024/03/08 12:46:20;;;;;;;3.17;1.73;;;9.70;99.90;;;;;;5113090;27;20037;-78
2024/03/08 12:48:49;;;;;;;1.63;1.50;;;8.30;99.90;;;;;;5114223;28;20443;-79
2024/03/08 12:51:17;;;;;;;1.23;1.23;;;8.30;99.90;;;;;;5094798;28;20039;-80
2024/03/08 12:53:47;;;;;;;2.08;1.27;;;8.40;99.90;;;;;;5103474;27;20030;-79
2024/03/08 12:56:17;;;;;;;0.63;0.63;;;8.40;99.90;;;;;;5110611;28;20064;-79
2024/03/08 12:58:43;;;;;;;1.33;1.27;;;8.50;99.90;;;;;;5091772;27;20042;-82
2024/03/08 13:01:09;;;;;;;;;;;8.60;99.90;;;;;;5063063;28;20047;-81
2024/03/08 13:03:37;;;;;;;0.68;0.68;;;8.70;99.90;;;;;;5097631;27;19922;-80